sensor_id;sensor_type;location;lat;lon;timestamp;P1;durP1;ratioP1;P2;durP2;ratioP2
55069;SDS011;40967;52.070;8.596;2022-09-01T00:02:11;0.40;;;0.20;;
55069;SDS011;40967;52.070;8.596;2022-09-01T00:04:39;0.50;;;0.20;;
55069;SDS011;40967;52.070;8.596;2022-09-01T00:07:05;0.22;;;0.13;;
55069;SDS011;40967;52.070;8.596;2022-09-01T00:09:33;0.30;;;0.20;;
55069;SDS011;40967;52.070;8.596;2022-09-01T00:11:58;0.50;;;0.20;;
55069;SDS011;40967;52.070;8.596;2022-09-01T00:14:26;0.30;;;0.20;;
55069;SDS011;40967;52.070;8.596;2022-09-01T00:16:53;0.47;;;0.27;;
55069;SDS011;40967;52.070;8.596;2022-09-01T00:19:19;0.63;;;0.20;;
55069;SDS011;40967;52.070;8.596;2022-09-01T00:21:46;0.30;;;0.20;;
55069;SDS011;40967;52.070;8.596;2022-09-01T00:24:12;0.20;;;0.17;;
55069;SDS011;40967;52.070;8.596;2022-09-01T00:26:39;0.30;;;0.20;;
55069;SDS011;40967;52.070;8.596;2022-09-01T00:29:05;0.10;;;0.10;;
55069;SDS011;40967;52.070;8.596;2022-09-01T00:31:31;0.10;;;0.10;;
55069;SDS011;40967;52.070;8.596;2022-09-01T00:33:57;0.40;;;0.20;;
55069;SDS011;40967;52.070;8.596;2022-09-01T00:36:23;0.40;;;0.15;;
55069;SDS011;40967;52.070;8.596;2022-09-01T00:38:48;0.27;;;0.17;;
55069;SDS011;40967;52.070;8.596;2022-09-01T00:41:15;0.10;;;0.10;;
55069;SDS011;40967;52.070;8.596;2022-09-01T00:46:30;0.28;;;0.10;;
55069;SDS011;40967;52.070;8.596;2022-09-01T00:49:05;0.25;;;0.20;;
55069;SDS011;40967;52.070;8.596;2022-09-01T00:51:50;0.23;;;0.13;;
55069;SDS011;40967;52.070;8.596;2022-09-01T00:54:23;0.38;;;0.20;;
55069;SDS011;40967;52.070;8.596;2022-09-01T00:56:52;0.30;;;0.13;;
55069;SDS011;40967;52.070;8.596;2022-09-01T00:59:19;0.30;;;0.20;;
55069;SDS011;40967;52.070;8.596;2022-09-01T01:01:46;0.40;;;0.20;;
55069;SDS011;40967;52.070;8.596;2022-09-01T01:04:12;0.40;;;0.20;;
55069;SDS011;40967;52.070;8.596;2022-09-01T01:06:45;0.30;;;0.10;;
55069;SDS011;40967;52.070;8.596;2022-09-01T01:09:18;0.10;;;0.10;;
55069;SDS011;40967;52.070;8.596;2022-09-01T01:11:46;0.13;;;0.10;;
55069;SDS011;40967;52.070;8.596;2022-09-01T01:14:13;0.15;;;0.10;;
55069;SDS011;40967;52.070;8.596;2022-09-01T01:16:44;0.60;;;0.20;;
55069;SDS011;40967;52.070;8.596;2022-09-01T01:19:22;0.10;;;0.10;;
55069;SDS011;40967;52.070;8.596;2022-09-01T01:22:17;0.25;;;0.10;;
55069;SDS011;40967;52.070;8.596;2022-09-01T01:25:05;0.43;;;0.17;;
55069;SDS011;40967;52.070;8.596;2022-09-01T01:27:32;0.20;;;0.20;;
55069;SDS011;40967;52.070;8.596;2022-09-01T01:29:59;0.20;;;0.10;;
55069;SDS011;40967;52.070;8.596;2022-09-01T01:32:26;0.20;;;0.20;;
55069;SDS011;40967;52.070;8.596;2022-09-01T01:34:53;0.30;;;0.20;;
55069;SDS011;40967;52.070;8.596;2022-09-01T01:37:18;0.40;;;0.17;;
55069;SDS011;40967;52.070;8.596;2022-09-01T01:39:44;0.40;;;0.20;;
55069;SDS011;40967;52.070;8.596;2022-09-01T01:42:12;0.20;;;0.13;;
55069;SDS011;40967;52.070;8.596;2022-09-01T01:44:38;0.50;;;0.20;;
55069;SDS011;40967;52.070;8.596;2022-09-01T01:47:04;0.10;;;0.10;;
55069;SDS011;40967;52.070;8.596;2022-09-01T01:49:37;0.40;;;0.20;;
55069;SDS011;40967;52.070;8.596;2022-09-01T01:52:04;0.10;;;0.10;;
55069;SDS011;40967;52.070;8.596;2022-09-01T01:54:29;0.20;;;0.10;;
55069;SDS011;40967;52.070;8.596;2022-09-01T01:56:56;0.57;;;0.20;;
55069;SDS011;40967;52.070;8.596;2022-09-01T01:59:22;0.20;;;0.10;;
55069;SDS011;40967;52.070;8.596;2022-09-01T02:01:49;0.35;;;0.15;;
55069;SDS011;40967;52.070;8.596;2022-09-01T02:04:15;0.40;;;0.20;;
55069;SDS011;40967;52.070;8.596;2022-09-01T02:06:41;0.28;;;0.20;;
55069;SDS011;40967;52.070;8.596;2022-09-01T02:09:10;0.38;;;0.20;;
55069;SDS011;40967;52.070;8.596;2022-09-01T02:11:37;0.10;;;0.10;;
55069;SDS011;40967;52.070;8.596;2022-09-01T02:14:04;0.50;;;0.10;;
55069;SDS011;40967;52.070;8.596;2022-09-01T02:16:31;0.35;;;0.13;;
55069;SDS011;40967;52.070;8.596;2022-09-01T02:18:58;0.20;;;0.20;;
55069;SDS011;40967;52.070;8.596;2022-09-01T02:21:25;0.50;;;0.10;;
55069;SDS011;40967;52.070;8.596;2022-09-01T02:23:52;0.30;;;0.10;;
55069;SDS011;40967;52.070;8.596;2022-09-01T02:26:24;0.20;;;0.20;;
55069;SDS011;40967;52.070;8.596;2022-09-01T02:28:57;0.20;;;0.10;;
55069;SDS011;40967;52.070;8.596;2022-09-01T02:31:26;0.27;;;0.20;;
55069;SDS011;40967;52.070;8.596;2022-09-01T02:33:51;0.25;;;0.20;;
55069;SDS011;40967;52.070;8.596;2022-09-01T02:36:18;0.30;;;0.10;;
55069;SDS011;40967;52.070;8.596;2022-09-01T02:38:45;0.40;;;0.20;;
55069;SDS011;40967;52.070;8.596;2022-09-01T02:41:12;0.30;;;0.20;;
55069;SDS011;40967;52.070;8.596;2022-09-01T02:43:41;0.30;;;0.10;;
55069;SDS011;40967;52.070;8.596;2022-09-01T02:46:10;0.80;;;0.20;;
55069;SDS011;40967;52.070;8.596;2022-09-01T02:48:36;0.50;;;0.20;;
55069;SDS011;40967;52.070;8.596;2022-09-01T02:51:08;0.30;;;0.13;;
55069;SDS011;40967;52.070;8.596;2022-09-01T02:53:36;0.60;;;0.20;;
55069;SDS011;40967;52.070;8.596;2022-09-01T02:56:04;0.35;;;0.20;;
55069;SDS011;40967;52.070;8.596;2022-09-01T02:58:33;0.55;;;0.30;;
55069;SDS011;40967;52.070;8.596;2022-09-01T03:01:04;0.25;;;0.20;;
55069;SDS011;40967;52.070;8.596;2022-09-01T03:03:36;0.30;;;0.13;;
55069;SDS011;40967;52.070;8.596;2022-09-01T03:06:02;0.30;;;0.20;;
55069;SDS011;40967;52.070;8.596;2022-09-01T03:08:33;0.43;;;0.30;;
55069;SDS011;40967;52.070;8.596;2022-09-01T03:11:00;0.30;;;0.20;;
55069;SDS011;40967;52.070;8.596;2022-09-01T03:13:26;0.20;;;0.20;;
55069;SDS011;40967;52.070;8.596;2022-09-01T03:15:53;0.30;;;0.10;;
55069;SDS011;40967;52.070;8.596;2022-09-01T03:18:18;0.10;;;0.10;;
55069;SDS011;40967;52.070;8.596;2022-09-01T03:20:44;0.20;;;0.17;;
55069;SDS011;40967;52.070;8.596;2022-09-01T03:23:11;0.38;;;0.20;;
55069;SDS011;40967;52.070;8.596;2022-09-01T03:25:39;0.33;;;0.20;;
55069;SDS011;40967;52.070;8.596;2022-09-01T03:28:08;0.30;;;0.20;;
55069;SDS011;40967;52.070;8.596;2022-09-01T03:30:37;0.20;;;0.10;;
55069;SDS011;40967;52.070;8.596;2022-09-01T03:33:05;0.30;;;0.20;;
55069;SDS011;40967;52.070;8.596;2022-09-01T03:35:31;0.47;;;0.20;;
55069;SDS011;40967;52.070;8.596;2022-09-01T03:37:57;0.30;;;0.20;;
55069;SDS011;40967;52.070;8.596;2022-09-01T03:40:24;0.25;;;0.13;;
55069;SDS011;40967;52.070;8.596;2022-09-01T03:42:56;0.20;;;0.20;;
55069;SDS011;40967;52.070;8.596;2022-09-01T03:45:22;0.27;;;0.10;;
55069;SDS011;40967;52.070;8.596;2022-09-01T03:47:49;0.10;;;0.10;;
55069;SDS011;40967;52.070;8.596;2022-09-01T03:50:17;0.22;;;0.17;;
55069;SDS011;40967;52.070;8.596;2022-09-01T03:52:53;0.33;;;0.20;;
55069;SDS011;40967;52.070;8.596;2022-09-01T03:55:25;0.30;;;0.20;;
55069;SDS011;40967;52.070;8.596;2022-09-01T03:57:54;0.30;;;0.20;;
55069;SDS011;40967;52.070;8.596;2022-09-01T04:00:25;0.20;;;0.20;;
55069;SDS011;40967;52.070;8.596;2022-09-01T04:02:55;0.20;;;0.17;;
55069;SDS011;40967;52.070;8.596;2022-09-01T04:05:25;0.30;;;0.10;;
55069;SDS011;40967;52.070;8.596;2022-09-01T04:07:53;0.10;;;0.10;;
55069;SDS011;40967;52.070;8.596;2022-09-01T04:10:20;0.40;;;0.20;;
55069;SDS011;40967;52.070;8.596;2022-09-01T04:12:46;0.70;;;0.20;;
55069;SDS011;40967;52.070;8.596;2022-09-01T04:15:12;0.10;;;0.10;;
55069;SDS011;40967;52.070;8.596;2022-09-01T04:17:40;0.52;;;0.30;;
55069;SDS011;40967;52.070;8.596;2022-09-01T04:20:25;0.30;;;0.20;;
55069;SDS011;40967;52.070;8.596;2022-09-01T04:22:50;0.30;;;0.20;;
55069;SDS011;40967;52.070;8.596;2022-09-01T04:25:16;0.25;;;0.10;;
55069;SDS011;40967;52.070;8.596;2022-09-01T04:27:47;0.35;;;0.20;;
55069;SDS011;40967;52.070;8.596;2022-09-01T04:30:19;0.30;;;0.20;;
55069;SDS011;40967;52.070;8.596;2022-09-01T04:32:49;0.30;;;0.10;;
55069;SDS011;40967;52.070;8.596;2022-09-01T04:35:16;0.40;;;0.30;;
55069;SDS011;40967;52.070;8.596;2022-09-01T04:37:42;0.30;;;0.20;;
55069;SDS011;40967;52.070;8.596;2022-09-01T04:40:11;0.50;;;0.30;;
55069;SDS011;40967;52.070;8.596;2022-09-01T04:42:38;0.10;;;0.10;;
55069;SDS011;40967;52.070;8.596;2022-09-01T04:45:05;0.70;;;0.30;;
55069;SDS011;40967;52.070;8.596;2022-09-01T04:47:34;0.40;;;0.20;;
55069;SDS011;40967;52.070;8.596;2022-09-01T04:50:02;0.28;;;0.20;;
55069;SDS011;40967;52.070;8.596;2022-09-01T04:52:36;0.40;;;0.22;;
55069;SDS011;40967;52.070;8.596;2022-09-01T04:55:02;0.37;;;0.30;;
55069;SDS011;40967;52.070;8.596;2022-09-01T04:57:27;0.23;;;0.20;;
55069;SDS011;40967;52.070;8.596;2022-09-01T04:59:54;0.40;;;0.25;;
55069;SDS011;40967;52.070;8.596;2022-09-01T05:02:21;0.47;;;0.25;;
55069;SDS011;40967;52.070;8.596;2022-09-01T05:04:50;0.35;;;0.20;;
55069;SDS011;40967;52.070;8.596;2022-09-01T05:07:19;0.35;;;0.15;;
55069;SDS011;40967;52.070;8.596;2022-09-01T05:09:45;0.40;;;0.20;;
55069;SDS011;40967;52.070;8.596;2022-09-01T05:12:11;0.55;;;0.20;;
55069;SDS011;40967;52.070;8.596;2022-09-01T05:14:37;0.50;;;0.30;;
55069;SDS011;40967;52.070;8.596;2022-09-01T05:17:06;0.20;;;0.20;;
55069;SDS011;40967;52.070;8.596;2022-09-01T05:19:44;0.68;;;0.28;;
55069;SDS011;40967;52.070;8.596;2022-09-01T05:22:11;0.68;;;0.30;;
55069;SDS011;40967;52.070;8.596;2022-09-01T05:24:39;1.10;;;0.40;;
55069;SDS011;40967;52.070;8.596;2022-09-01T05:27:05;0.70;;;0.30;;
55069;SDS011;40967;52.070;8.596;2022-09-01T05:29:32;0.70;;;0.30;;
55069;SDS011;40967;52.070;8.596;2022-09-01T05:31:58;0.63;;;0.40;;
55069;SDS011;40967;52.070;8.596;2022-09-01T05:34:24;1.30;;;0.40;;
55069;SDS011;40967;52.070;8.596;2022-09-01T05:36:50;1.17;;;0.50;;
55069;SDS011;40967;52.070;8.596;2022-09-01T05:39:18;1.83;;;0.60;;
55069;SDS011;40967;52.070;8.596;2022-09-01T05:41:45;1.33;;;0.55;;
55069;SDS011;40967;52.070;8.596;2022-09-01T05:44:12;1.15;;;0.40;;
55069;SDS011;40967;52.070;8.596;2022-09-01T05:46:38;1.83;;;0.80;;
55069;SDS011;40967;52.070;8.596;2022-09-01T05:49:04;1.13;;;0.60;;
55069;SDS011;40967;52.070;8.596;2022-09-01T05:51:31;1.33;;;0.50;;
55069;SDS011;40967;52.070;8.596;2022-09-01T05:54:00;2.20;;;0.43;;
55069;SDS011;40967;52.070;8.596;2022-09-01T05:56:27;0.90;;;0.50;;
55069;SDS011;40967;52.070;8.596;2022-09-01T05:58:55;0.60;;;0.40;;
55069;SDS011;40967;52.070;8.596;2022-09-01T06:01:25;0.77;;;0.32;;
55069;SDS011;40967;52.070;8.596;2022-09-01T06:03:53;1.88;;;0.57;;
55069;SDS011;40967;52.070;8.596;2022-09-01T06:06:22;1.25;;;0.40;;
55069;SDS011;40967;52.070;8.596;2022-09-01T06:08:49;0.67;;;0.40;;
55069;SDS011;40967;52.070;8.596;2022-09-01T06:11:15;0.80;;;0.30;;
55069;SDS011;40967;52.070;8.596;2022-09-01T06:13:45;0.95;;;0.40;;
55069;SDS011;40967;52.070;8.596;2022-09-01T06:16:14;1.33;;;0.60;;
55069;SDS011;40967;52.070;8.596;2022-09-01T06:18:42;0.95;;;0.40;;
55069;SDS011;40967;52.070;8.596;2022-09-01T06:21:08;0.90;;;0.43;;
55069;SDS011;40967;52.070;8.596;2022-09-01T06:23:39;1.00;;;0.40;;
55069;SDS011;40967;52.070;8.596;2022-09-01T06:26:05;1.00;;;0.50;;
55069;SDS011;40967;52.070;8.596;2022-09-01T06:28:32;1.08;;;0.47;;
55069;SDS011;40967;52.070;8.596;2022-09-01T06:30:57;0.60;;;0.40;;
55069;SDS011;40967;52.070;8.596;2022-09-01T06:33:23;0.90;;;0.50;;
55069;SDS011;40967;52.070;8.596;2022-09-01T06:35:50;1.00;;;0.40;;
55069;SDS011;40967;52.070;8.596;2022-09-01T06:38:16;0.53;;;0.20;;
55069;SDS011;40967;52.070;8.596;2022-09-01T06:40:43;0.65;;;0.30;;
55069;SDS011;40967;52.070;8.596;2022-09-01T06:43:10;0.50;;;0.25;;
55069;SDS011;40967;52.070;8.596;2022-09-01T06:45:54;0.80;;;0.40;;
55069;SDS011;40967;52.070;8.596;2022-09-01T06:48:20;0.85;;;0.40;;
55069;SDS011;40967;52.070;8.596;2022-09-01T06:50:47;0.60;;;0.30;;
55069;SDS011;40967;52.070;8.596;2022-09-01T06:53:13;0.65;;;0.30;;
55069;SDS011;40967;52.070;8.596;2022-09-01T06:55:42;0.40;;;0.30;;
55069;SDS011;40967;52.070;8.596;2022-09-01T06:58:12;0.47;;;0.30;;
55069;SDS011;40967;52.070;8.596;2022-09-01T07:00:39;0.52;;;0.30;;
55069;SDS011;40967;52.070;8.596;2022-09-01T07:03:09;0.27;;;0.20;;
55069;SDS011;40967;52.070;8.596;2022-09-01T07:05:41;0.28;;;0.20;;
55069;SDS011;40967;52.070;8.596;2022-09-01T07:08:09;0.47;;;0.20;;
55069;SDS011;40967;52.070;8.596;2022-09-01T07:10:46;0.20;;;0.20;;
55069;SDS011;40967;52.070;8.596;2022-09-01T07:13:18;0.35;;;0.20;;
55069;SDS011;40967;52.070;8.596;2022-09-01T07:15:47;0.30;;;0.20;;
55069;SDS011;40967;52.070;8.596;2022-09-01T07:18:17;0.30;;;0.20;;
55069;SDS011;40967;52.070;8.596;2022-09-01T07:20:49;0.20;;;0.10;;
55069;SDS011;40967;52.070;8.596;2022-09-01T07:23:16;0.32;;;0.13;;
55069;SDS011;40967;52.070;8.596;2022-09-01T07:25:44;0.40;;;0.17;;
55069;SDS011;40967;52.070;8.596;2022-09-01T07:28:12;0.25;;;0.13;;
55069;SDS011;40967;52.070;8.596;2022-09-01T07:30:40;0.30;;;0.20;;
55069;SDS011;40967;52.070;8.596;2022-09-01T07:33:12;0.43;;;0.17;;
55069;SDS011;40967;52.070;8.596;2022-09-01T07:35:39;0.43;;;0.20;;
55069;SDS011;40967;52.070;8.596;2022-09-01T07:38:06;0.25;;;0.20;;
55069;SDS011;40967;52.070;8.596;2022-09-01T07:40:34;0.80;;;0.20;;
55069;SDS011;40967;52.070;8.596;2022-09-01T07:43:03;0.77;;;0.30;;
55069;SDS011;40967;52.070;8.596;2022-09-01T07:45:36;0.90;;;0.40;;
55069;SDS011;40967;52.070;8.596;2022-09-01T07:48:03;0.63;;;0.27;;
55069;SDS011;40967;52.070;8.596;2022-09-01T07:50:34;0.30;;;0.20;;
55069;SDS011;40967;52.070;8.596;2022-09-01T07:53:02;0.57;;;0.38;;
55069;SDS011;40967;52.070;8.596;2022-09-01T07:55:28;0.68;;;0.32;;
55069;SDS011;40967;52.070;8.596;2022-09-01T07:57:55;0.22;;;0.10;;
55069;SDS011;40967;52.070;8.596;2022-09-01T08:00:22;0.98;;;0.40;;
55069;SDS011;40967;52.070;8.596;2022-09-01T08:02:48;0.40;;;0.20;;
55069;SDS011;40967;52.070;8.596;2022-09-01T08:05:15;0.73;;;0.40;;
55069;SDS011;40967;52.070;8.596;2022-09-01T08:07:45;0.60;;;0.25;;
55069;SDS011;40967;52.070;8.596;2022-09-01T08:10:13;0.35;;;0.20;;
55069;SDS011;40967;52.070;8.596;2022-09-01T08:12:39;0.35;;;0.20;;
55069;SDS011;40967;52.070;8.596;2022-09-01T08:15:04;0.43;;;0.20;;
55069;SDS011;40967;52.070;8.596;2022-09-01T08:17:31;0.40;;;0.20;;
55069;SDS011;40967;52.070;8.596;2022-09-01T08:19:57;0.30;;;0.20;;
55069;SDS011;40967;52.070;8.596;2022-09-01T08:22:22;0.50;;;0.20;;
55069;SDS011;40967;52.070;8.596;2022-09-01T08:24:50;0.50;;;0.20;;
55069;SDS011;40967;52.070;8.596;2022-09-01T08:27:16;0.50;;;0.20;;
55069;SDS011;40967;52.070;8.596;2022-09-01T08:29:41;0.57;;;0.30;;
55069;SDS011;40967;52.070;8.596;2022-09-01T08:32:07;0.80;;;0.30;;
55069;SDS011;40967;52.070;8.596;2022-09-01T08:34:33;0.63;;;0.30;;
55069;SDS011;40967;52.070;8.596;2022-09-01T08:36:58;0.57;;;0.38;;
55069;SDS011;40967;52.070;8.596;2022-09-01T08:39:24;1.13;;;0.50;;
55069;SDS011;40967;52.070;8.596;2022-09-01T08:44:31;0.35;;;0.20;;
55069;SDS011;40967;52.070;8.596;2022-09-01T08:47:11;0.80;;;0.40;;
55069;SDS011;40967;52.070;8.596;2022-09-01T08:49:38;0.65;;;0.30;;
55069;SDS011;40967;52.070;8.596;2022-09-01T08:54:53;0.67;;;0.37;;
55069;SDS011;40967;52.070;8.596;2022-09-01T08:57:34;0.60;;;0.30;;
55069;SDS011;40967;52.070;8.596;2022-09-01T09:00:02;0.38;;;0.30;;
55069;SDS011;40967;52.070;8.596;2022-09-01T09:02:38;0.63;;;0.30;;
55069;SDS011;40967;52.070;8.596;2022-09-01T09:16:12;0.70;;;0.30;;
55069;SDS011;40967;52.070;8.596;2022-09-01T09:18:56;0.63;;;0.40;;
55069;SDS011;40967;52.070;8.596;2022-09-01T09:21:29;0.45;;;0.30;;
55069;SDS011;40967;52.070;8.596;2022-09-01T09:24:02;0.30;;;0.27;;
55069;SDS011;40967;52.070;8.596;2022-09-01T09:26:34;0.40;;;0.30;;
55069;SDS011;40967;52.070;8.596;2022-09-01T09:28:59;0.30;;;0.20;;
55069;SDS011;40967;52.070;8.596;2022-09-01T09:31:30;0.40;;;0.20;;
55069;SDS011;40967;52.070;8.596;2022-09-01T09:33:56;0.60;;;0.30;;
55069;SDS011;40967;52.070;8.596;2022-09-01T09:36:43;0.30;;;0.20;;
55069;SDS011;40967;52.070;8.596;2022-09-01T09:39:12;0.35;;;0.30;;
55069;SDS011;40967;52.070;8.596;2022-09-01T09:41:41;0.40;;;0.20;;
55069;SDS011;40967;52.070;8.596;2022-09-01T09:46:53;0.60;;;0.30;;
55069;SDS011;40967;52.070;8.596;2022-09-01T09:49:22;1.00;;;0.40;;
55069;SDS011;40967;52.070;8.596;2022-09-01T09:51:57;0.40;;;0.20;;
55069;SDS011;40967;52.070;8.596;2022-09-01T09:54:57;0.32;;;0.25;;
55069;SDS011;40967;52.070;8.596;2022-09-01T09:57:29;0.38;;;0.20;;
55069;SDS011;40967;52.070;8.596;2022-09-01T09:59:57;0.88;;;0.38;;
55069;SDS011;40967;52.070;8.596;2022-09-01T10:02:39;0.60;;;0.30;;
55069;SDS011;40967;52.070;8.596;2022-09-01T10:05:21;1.20;;;0.40;;
55069;SDS011;40967;52.070;8.596;2022-09-01T10:07:47;0.65;;;0.30;;
55069;SDS011;40967;52.070;8.596;2022-09-01T10:13:22;1.00;;;0.30;;
55069;SDS011;40967;52.070;8.596;2022-09-01T10:15:52;0.30;;;0.20;;
55069;SDS011;40967;52.070;8.596;2022-09-01T10:18:29;0.35;;;0.20;;
55069;SDS011;40967;52.070;8.596;2022-09-01T10:21:01;0.70;;;0.35;;
55069;SDS011;40967;52.070;8.596;2022-09-01T10:23:32;0.68;;;0.30;;
55069;SDS011;40967;52.070;8.596;2022-09-01T10:26:01;0.50;;;0.30;;
55069;SDS011;40967;52.070;8.596;2022-09-01T10:28:34;0.40;;;0.30;;
55069;SDS011;40967;52.070;8.596;2022-09-01T10:31:05;0.55;;;0.30;;
55069;SDS011;40967;52.070;8.596;2022-09-01T10:33:30;0.82;;;0.30;;
55069;SDS011;40967;52.070;8.596;2022-09-01T10:35:55;0.90;;;0.40;;
55069;SDS011;40967;52.070;8.596;2022-09-01T10:38:23;0.50;;;0.30;;
55069;SDS011;40967;52.070;8.596;2022-09-01T10:40:51;0.50;;;0.30;;
55069;SDS011;40967;52.070;8.596;2022-09-01T10:45:59;0.80;;;0.20;;
55069;SDS011;40967;52.070;8.596;2022-09-01T10:48:33;0.65;;;0.30;;
55069;SDS011;40967;52.070;8.596;2022-09-01T10:56:14;0.73;;;0.30;;
55069;SDS011;40967;52.070;8.596;2022-09-01T10:59:03;0.80;;;0.40;;
55069;SDS011;40967;52.070;8.596;2022-09-01T11:06:45;0.57;;;0.35;;
55069;SDS011;40967;52.070;8.596;2022-09-01T11:09:28;1.40;;;0.40;;
55069;SDS011;40967;52.070;8.596;2022-09-01T11:14:57;0.53;;;0.37;;
55069;SDS011;40967;52.070;8.596;2022-09-01T11:17:31;0.88;;;0.40;;
55069;SDS011;40967;52.070;8.596;2022-09-01T11:35:56;0.73;;;0.37;;
55069;SDS011;40967;52.070;8.596;2022-09-01T11:38:51;0.80;;;0.40;;
55069;SDS011;40967;52.070;8.596;2022-09-01T11:41:32;0.30;;;0.30;;
55069;SDS011;40967;52.070;8.596;2022-09-01T11:43:59;0.40;;;0.30;;
55069;SDS011;40967;52.070;8.596;2022-09-01T11:46:33;0.60;;;0.40;;
55069;SDS011;40967;52.070;8.596;2022-09-01T11:49:05;1.13;;;0.50;;
55069;SDS011;40967;52.070;8.596;2022-09-01T11:51:45;0.80;;;0.35;;
55069;SDS011;40967;52.070;8.596;2022-09-01T11:54:11;0.57;;;0.30;;
55069;SDS011;40967;52.070;8.596;2022-09-01T11:56:38;0.68;;;0.30;;
55069;SDS011;40967;52.070;8.596;2022-09-01T11:59:03;0.65;;;0.35;;
55069;SDS011;40967;52.070;8.596;2022-09-01T12:03:54;0.60;;;0.30;;
55069;SDS011;40967;52.070;8.596;2022-09-01T12:06:21;0.40;;;0.30;;
55069;SDS011;40967;52.070;8.596;2022-09-01T12:08:53;0.63;;;0.32;;
55069;SDS011;40967;52.070;8.596;2022-09-01T12:11:24;1.35;;;0.40;;
55069;SDS011;40967;52.070;8.596;2022-09-01T12:14:01;0.80;;;0.30;;
55069;SDS011;40967;52.070;8.596;2022-09-01T12:16:29;0.90;;;0.45;;
55069;SDS011;40967;52.070;8.596;2022-09-01T12:18:58;0.40;;;0.20;;
55069;SDS011;40967;52.070;8.596;2022-09-01T12:21:31;0.23;;;0.20;;
55069;SDS011;40967;52.070;8.596;2022-09-01T12:24:14;0.50;;;0.20;;
55069;SDS011;40967;52.070;8.596;2022-09-01T12:26:42;1.00;;;0.30;;
55069;SDS011;40967;52.070;8.596;2022-09-01T12:29:09;0.52;;;0.30;;
55069;SDS011;40967;52.070;8.596;2022-09-01T12:31:38;0.40;;;0.20;;
55069;SDS011;40967;52.070;8.596;2022-09-01T12:34:20;0.50;;;0.20;;
55069;SDS011;40967;52.070;8.596;2022-09-01T12:37:21;0.40;;;0.20;;
55069;SDS011;40967;52.070;8.596;2022-09-01T12:39:57;0.80;;;0.40;;
55069;SDS011;40967;52.070;8.596;2022-09-01T12:44:59;0.47;;;0.30;;
55069;SDS011;40967;52.070;8.596;2022-09-01T12:49:58;0.67;;;0.30;;
55069;SDS011;40967;52.070;8.596;2022-09-01T12:52:26;0.70;;;0.37;;
55069;SDS011;40967;52.070;8.596;2022-09-01T12:57:38;0.60;;;0.40;;
55069;SDS011;40967;52.070;8.596;2022-09-01T13:02:36;0.82;;;0.30;;
55069;SDS011;40967;52.070;8.596;2022-09-01T13:05:22;0.60;;;0.30;;
55069;SDS011;40967;52.070;8.596;2022-09-01T13:08:01;0.60;;;0.30;;
55069;SDS011;40967;52.070;8.596;2022-09-01T13:10:33;0.60;;;0.20;;
55069;SDS011;40967;52.070;8.596;2022-09-01T13:13:04;0.77;;;0.35;;
55069;SDS011;40967;52.070;8.596;2022-09-01T13:15:31;0.65;;;0.30;;
55069;SDS011;40967;52.070;8.596;2022-09-01T13:17:57;0.40;;;0.30;;
55069;SDS011;40967;52.070;8.596;2022-09-01T13:20:23;0.55;;;0.30;;
55069;SDS011;40967;52.070;8.596;2022-09-01T13:22:48;0.52;;;0.20;;
55069;SDS011;40967;52.070;8.596;2022-09-01T13:25:15;1.00;;;0.40;;
55069;SDS011;40967;52.070;8.596;2022-09-01T13:27:43;0.60;;;0.30;;
55069;SDS011;40967;52.070;8.596;2022-09-01T13:30:12;0.57;;;0.28;;
55069;SDS011;40967;52.070;8.596;2022-09-01T13:32:39;0.80;;;0.30;;
55069;SDS011;40967;52.070;8.596;2022-09-01T13:35:06;0.70;;;0.30;;
55069;SDS011;40967;52.070;8.596;2022-09-01T13:37:31;0.70;;;0.30;;
55069;SDS011;40967;52.070;8.596;2022-09-01T13:39:57;0.60;;;0.30;;
55069;SDS011;40967;52.070;8.596;2022-09-01T13:42:23;0.88;;;0.50;;
55069;SDS011;40967;52.070;8.596;2022-09-01T13:44:48;0.70;;;0.30;;
55069;SDS011;40967;52.070;8.596;2022-09-01T13:47:14;0.77;;;0.40;;
55069;SDS011;40967;52.070;8.596;2022-09-01T13:49:39;0.50;;;0.40;;
55069;SDS011;40967;52.070;8.596;2022-09-01T13:52:04;1.27;;;0.40;;
55069;SDS011;40967;52.070;8.596;2022-09-01T13:54:30;0.60;;;0.30;;
55069;SDS011;40967;52.070;8.596;2022-09-01T13:56:55;0.50;;;0.22;;
55069;SDS011;40967;52.070;8.596;2022-09-01T13:59:21;0.50;;;0.30;;
55069;SDS011;40967;52.070;8.596;2022-09-01T14:01:46;0.37;;;0.20;;
55069;SDS011;40967;52.070;8.596;2022-09-01T14:04:12;1.00;;;0.30;;
55069;SDS011;40967;52.070;8.596;2022-09-01T14:06:40;0.57;;;0.40;;
55069;SDS011;40967;52.070;8.596;2022-09-01T14:09:08;0.65;;;0.40;;
55069;SDS011;40967;52.070;8.596;2022-09-01T14:11:34;1.23;;;0.38;;
55069;SDS011;40967;52.070;8.596;2022-09-01T14:14:00;0.63;;;0.40;;
55069;SDS011;40967;52.070;8.596;2022-09-01T14:16:25;0.57;;;0.30;;
55069;SDS011;40967;52.070;8.596;2022-09-01T14:18:51;0.47;;;0.30;;
55069;SDS011;40967;52.070;8.596;2022-09-01T14:21:17;0.52;;;0.30;;
55069;SDS011;40967;52.070;8.596;2022-09-01T14:23:42;0.57;;;0.40;;
55069;SDS011;40967;52.070;8.596;2022-09-01T14:26:09;0.55;;;0.20;;
55069;SDS011;40967;52.070;8.596;2022-09-01T14:28:37;0.77;;;0.30;;
55069;SDS011;40967;52.070;8.596;2022-09-01T14:31:10;0.20;;;0.20;;
55069;SDS011;40967;52.070;8.596;2022-09-01T14:33:39;0.38;;;0.20;;
55069;SDS011;40967;52.070;8.596;2022-09-01T14:36:05;0.75;;;0.40;;
55069;SDS011;40967;52.070;8.596;2022-09-01T14:38:32;0.43;;;0.30;;
55069;SDS011;40967;52.070;8.596;2022-09-01T14:40:59;0.90;;;0.40;;
55069;SDS011;40967;52.070;8.596;2022-09-01T14:43:24;0.43;;;0.30;;
55069;SDS011;40967;52.070;8.596;2022-09-01T14:46:00;0.73;;;0.33;;
55069;SDS011;40967;52.070;8.596;2022-09-01T14:48:33;0.40;;;0.30;;
55069;SDS011;40967;52.070;8.596;2022-09-01T14:50:59;0.65;;;0.30;;
55069;SDS011;40967;52.070;8.596;2022-09-01T14:53:25;1.23;;;0.43;;
55069;SDS011;40967;52.070;8.596;2022-09-01T14:55:53;0.70;;;0.40;;
55069;SDS011;40967;52.070;8.596;2022-09-01T14:58:19;0.77;;;0.40;;
55069;SDS011;40967;52.070;8.596;2022-09-01T15:00:44;0.30;;;0.30;;
55069;SDS011;40967;52.070;8.596;2022-09-01T15:03:11;0.73;;;0.30;;
55069;SDS011;40967;52.070;8.596;2022-09-01T15:05:37;0.47;;;0.20;;
55069;SDS011;40967;52.070;8.596;2022-09-01T15:08:03;0.43;;;0.25;;
55069;SDS011;40967;52.070;8.596;2022-09-01T15:10:29;0.37;;;0.20;;
55069;SDS011;40967;52.070;8.596;2022-09-01T15:12:57;0.60;;;0.33;;
55069;SDS011;40967;52.070;8.596;2022-09-01T15:15:24;0.60;;;0.28;;
55069;SDS011;40967;52.070;8.596;2022-09-01T15:17:51;0.73;;;0.33;;
55069;SDS011;40967;52.070;8.596;2022-09-01T15:20:17;0.40;;;0.20;;
55069;SDS011;40967;52.070;8.596;2022-09-01T15:23:02;0.65;;;0.20;;
55069;SDS011;40967;52.070;8.596;2022-09-01T15:25:28;0.37;;;0.20;;
55069;SDS011;40967;52.070;8.596;2022-09-01T15:27:53;0.43;;;0.20;;
55069;SDS011;40967;52.070;8.596;2022-09-01T15:30:19;1.03;;;0.30;;
55069;SDS011;40967;52.070;8.596;2022-09-01T15:32:47;1.00;;;0.40;;
55069;SDS011;40967;52.070;8.596;2022-09-01T15:35:15;0.70;;;0.38;;
55069;SDS011;40967;52.070;8.596;2022-09-01T15:37:42;0.95;;;0.32;;
55069;SDS011;40967;52.070;8.596;2022-09-01T15:40:09;0.45;;;0.30;;
55069;SDS011;40967;52.070;8.596;2022-09-01T15:42:35;0.47;;;0.40;;
55069;SDS011;40967;52.070;8.596;2022-09-01T15:45:02;0.20;;;0.20;;
55069;SDS011;40967;52.070;8.596;2022-09-01T15:47:30;0.43;;;0.30;;
55069;SDS011;40967;52.070;8.596;2022-09-01T15:49:56;0.53;;;0.30;;
55069;SDS011;40967;52.070;8.596;2022-09-01T15:52:21;1.00;;;0.30;;
55069;SDS011;40967;52.070;8.596;2022-09-01T15:54:47;0.30;;;0.20;;
55069;SDS011;40967;52.070;8.596;2022-09-01T15:57:12;0.60;;;0.30;;
55069;SDS011;40967;52.070;8.596;2022-09-01T15:59:37;1.10;;;0.40;;
55069;SDS011;40967;52.070;8.596;2022-09-01T16:02:04;0.60;;;0.20;;
55069;SDS011;40967;52.070;8.596;2022-09-01T16:04:31;0.30;;;0.20;;
55069;SDS011;40967;52.070;8.596;2022-09-01T16:06:56;0.20;;;0.20;;
55069;SDS011;40967;52.070;8.596;2022-09-01T16:09:22;0.40;;;0.20;;